Nancy Foster — WTER — position and weather

sailwx.info

Track history (hours):
 
Tides and Currents Weather Stations Pressure Air Temp Water Temp Dewpoint Dewpoint Depression Visibility Wind Speed Wind Dir Waves Ship Positions

Oceanographic research ship Nancy Foster (USA)

Detailed information on ship capabilities available from University of Delaware's Ocean Information Center.

Last reported at 2017-Oct-10 06:56 UTC. Time now 2017-Oct-18 15:00 UTC.
Position N 38°15' W 074°30'.
Warning: this ship's position is 8 days out of date.

Type: Other ship. MMSI: 369912000.

Date/timePositionNaut miles runAvg speedWind from/ knotsBaromVisibWave heightAir tempDewpointWater temp
2017-Oct-10 06:56N 38°15' W 074°30'4 8.0
2017-Oct-10 06:25N 38°19' W 074°29'4 8.0
2017-Oct-10 05:58N 38°22' W 074°28'72 6.5
2017-Oct-09 18:59N 39°31' W 073°60'3 6.7
2017-Oct-09 18:30N 39°34' W 073°59'5 7.1
2017-Oct-09 17:52N 39°38' W 073°57'3 7.7
2017-Oct-09 17:30N 39°41' W 073°56'4 8.0
2017-Oct-09 17:00N 39°45' W 073°57'4 8.1
2017-Oct-09 16:30N 39°49' W 073°57'4 8.3
2017-Oct-09 16:00N 39°53' W 073°57'5 8.6
2017-Oct-09 15:27N 39°58' W 073°58'14 5.3
2017-Oct-09 12:53N 40°12' W 073°58'10 7.5
2017-Oct-09 11:28N 40°12' W 073°44'4 9.2
2017-Oct-09 11:00N 40°12' W 073°39'5 9.2
2017-Oct-09 10:28N 40°13' W 073°32'4 9.1
2017-Oct-09 10:00N 40°15' W 073°27'5 9.2
2017-Oct-09 09:30N 40°15' W 073°21'2 3.5
2017-Oct-09 08:59N 40°15' W 073°19'5 8.9
2017-Oct-09 08:26N 40°19' W 073°14'2 3.7
2017-Oct-09 08:00N 40°17' W 073°14'5 9.2
2017-Oct-09 07:29N 40°14' W 073°19'5 7.8
2017-Oct-09 06:54N 40°17' W 073°14'2 4.4
2017-Oct-09 06:19N 40°19' W 073°12'3 9.3
2017-Oct-09 06:00N 40°17' W 073°15'4 6.9
2017-Oct-09 05:28N 40°14' W 073°17'7 5.1
2017-Oct-09 04:05N 40°17' W 073°09'1 2.5
2017-Oct-09 03:42N 40°16' W 073°10'0 1.3
2017-Oct-09 03:26N 40°16' W 073°10'2 0.7
2017-Oct-09 01:16N 40°17' W 073°08'4 8.2
2017-Oct-09 00:49N 40°15' W 073°12'4 0.6
2017-Oct-08 18:23N 40°18' W 073°08'2 3.9
2017-Oct-08 17:57N 40°16' W 073°09'1 0.2
2017-Oct-08 11:10N 40°15' W 073°10'2 9.7
2017-Oct-08 10:58N 40°14' W 073°12'1 2.0
2017-Oct-08 10:18N 40°13' W 073°11'5 4.3
2017-Oct-08 09:14N 40°16' W 073°07'3 9.6
2017-Oct-08 08:58N 40°14' W 073°09'2 1.5
2017-Oct-08 07:52N 40°15' W 073°07'0 0.7
2017-Oct-08 07:08N 40°16' W 073°07'210.0
2017-Oct-08 06:55N 40°14' W 073°09'3 6.1
2017-Oct-08 06:21N 40°12' W 073°13'5 9.2
2017-Oct-08 05:49N 40°16' W 073°08'4 8.8
2017-Oct-08 05:24N 40°18' W 073°04'410.1
2017-Oct-08 05:01N 40°15' W 073°08'510.3
2017-Oct-08 04:30N 40°12' W 073°13'4 6.9
2017-Oct-08 03:55N 40°15' W 073°10'5 8.7
2017-Oct-08 03:20N 40°18' W 073°05'310.3
2017-Oct-08 03:00N 40°16' W 073°08'510.4
2017-Oct-08 02:31N 40°12' W 073°13'3 4.9
2017-Oct-08 01:59N 40°14' W 073°10'6 9.3
2017-Oct-08 01:23N 40°18' W 073°05'3 7.4
2017-Oct-08 01:00N 40°16' W 073°08'510.3
2017-Oct-08 00:30N 40°12' W 073°12'1 1.8
2017-Oct-08 00:00N 40°13' W 073°12'4 6.8
2017-Oct-07 23:25N 40°16' W 073°08'2 4.9
2017-Oct-07 22:58N 40°18' W 073°07'510.1
2017-Oct-07 22:30N 40°15' W 073°11'4 0.7
2017-Oct-07 17:09N 40°17' W 073°07'210.1
2017-Oct-07 16:58N 40°16' W 073°09'510.2
2017-Oct-07 16:30N 40°12' W 073°14'4 7.9
2017-Oct-07 16:01N 40°15' W 073°10'4 4.8
2017-Oct-07 15:16N 40°18' W 073°08'310.3
2017-Oct-07 14:57N 40°16' W 073°12'4 9.7
2017-Oct-07 14:30N 40°13' W 073°16'5 9.5
2017-Oct-07 14:00N 40°17' W 073°11'2 4.4
2017-Oct-07 13:30N 40°18' W 073°09'1 1.4
2017-Oct-07 13:00N 40°18' W 073°10'5 9.8
2017-Oct-07 12:30N 40°15' W 073°15'0 0.6
2017-Oct-07 12:00N 40°15' W 073°15'5 9.5
2017-Oct-07 11:30N 40°18' W 073°10'3 5.4
2017-Oct-07 11:00N 40°17' W 073°13'4 6.6
2017-Oct-07 10:25N 40°13' W 073°15'6 9.5
2017-Oct-07 09:48N 40°17' W 073°10'2 7.0
2017-Oct-07 09:29N 40°19' W 073°08'5 9.5
2017-Oct-07 09:00N 40°15' W 073°12'3 6.4
2017-Oct-07 08:30N 40°13' W 073°15'5 9.6
2017-Oct-07 08:00N 40°16' W 073°10'2 4.8
2017-Oct-07 07:30N 40°18' W 073°08'5 9.6
2017-Oct-07 07:00N 40°15' W 073°12'2 4.0
2017-Oct-07 06:29N 40°13' W 073°14'5 9.4
2017-Oct-07 06:00N 40°16' W 073°10'3 5.2
2017-Oct-07 05:30N 40°18' W 073°08'5 9.9
2017-Oct-07 05:00N 40°15' W 073°12'2 3.7
2017-Oct-07 04:29N 40°14' W 073°14'5 9.3
2017-Oct-07 03:56N 40°17' W 073°10'1 3.4
2017-Oct-07 03:30N 40°18' W 073°08'510.0
2017-Oct-07 03:00N 40°15' W 073°13'0 0.1
2017-Oct-07 02:29N 40°15' W 073°13'5 9.2
2017-Oct-07 02:00N 40°18' W 073°09'0 0.4
2017-Oct-07 01:29N 40°18' W 073°09'5 9.9
2017-Oct-07 00:59N 40°14' W 073°14'1 2.3
2017-Oct-07 00:19N 40°15' W 073°15'2 4.8
2017-Oct-06 23:53N 40°17' W 073°13'3 6.3
2017-Oct-06 23:27N 40°18' W 073°10'510.1
2017-Oct-06 22:58N 40°15' W 073°15'6 5.3
2017-Oct-06 21:50N 40°19' W 073°09'4 9.3
2017-Oct-06 21:23N 40°16' W 073°12'3 2.5
2017-Oct-06 20:17N 40°18' W 073°10'3 8.2
2017-Oct-06 19:59N 40°16' W 073°12'2 2.9
2017-Oct-06 19:18N 40°15' W 073°14'5 7.3
2017-Oct-06 18:36N 40°18' W 073°09'1 9.7
2017-Oct-06 18:29N 40°18' W 073°10'2 0.9
2017-Oct-06 16:20N 40°19' W 073°09'4 9.6
2017-Oct-06 15:54N 40°16' W 073°12'4 9.8
2017-Oct-06 15:31N 40°14' W 073°16'4 7.7
2017-Oct-06 14:58N 40°16' W 073°12'3 5.1
2017-Oct-06 14:26N 40°19' W 073°10'4 9.7
2017-Oct-06 14:00N 40°16' W 073°14'1 2.0
2017-Oct-06 13:23N 40°15' W 073°15'3 8.1
2017-Oct-06 12:59N 40°17' W 073°12'2 3.7
2017-Oct-06 12:30N 40°18' W 073°10'5 9.6
2017-Oct-06 11:59N 40°15' W 073°15'1 1.7
2017-Oct-06 11:30N 40°15' W 073°16'5 8.9
2017-Oct-06 10:58N 40°18' W 073°12'1 1.9
2017-Oct-06 10:30N 40°18' W 073°13'5 9.5
2017-Oct-06 10:00N 40°14' W 073°17'4 8.3
2017-Oct-06 09:30N 40°17' W 073°13'1 2.8
2017-Oct-06 09:00N 40°18' W 073°12'5 9.4
2017-Oct-06 08:30N 40°15' W 073°17'6 5.4
2017-Oct-06 07:27N 40°19' W 073°11'7 1.1
2017-Oct-06 01:10N 40°14' W 073°18'0 2.7
2017-Oct-06 01:00N 40°15' W 073°18'2 0.2
2017-Oct-05 15:20N 40°16' W 073°17'2 5.2
2017-Oct-05 14:55N 40°15' W 073°19'3 8.1
2017-Oct-05 14:30N 40°17' W 073°16'2 4.3
2017-Oct-05 14:00N 40°18' W 073°14'5 9.9
2017-Oct-05 13:30N 40°15' W 073°18'1 2.3
2017-Oct-05 13:00N 40°16' W 073°18'3 6.7
2017-Oct-05 12:30N 40°18' W 073°15'2 3.2
2017-Oct-05 12:00N 40°17' W 073°16'3 6.7
2017-Oct-05 11:30N 40°15' W 073°19'3 6.3
2017-Oct-05 11:00N 40°17' W 073°16'3 5.0
2017-Oct-05 10:29N 40°19' W 073°14'5 9.5
2017-Oct-05 10:00N 40°16' W 073°18'0 0.4
2017-Oct-05 09:30N 40°16' W 073°18'3 6.2
2017-Oct-05 09:00N 40°18' W 073°15'0 0.9
2017-Oct-05 08:30N 40°18' W 073°15'4 9.0
2017-Oct-05 08:00N 40°15' W 073°19'2 3.1
2017-Oct-05 07:30N 40°16' W 073°18'3 6.0
2017-Oct-05 07:00N 40°18' W 073°15'1 1.7
2017-Oct-05 06:30N 40°18' W 073°16'5 9.3
2017-Oct-05 06:00N 40°15' W 073°20'3 6.0
2017-Oct-05 05:30N 40°17' W 073°18'4 6.0
2017-Oct-05 04:53N 40°20' W 073°14'3 7.6
2017-Oct-05 04:30N 40°18' W 073°17'4 7.1
2017-Oct-05 04:00N 40°15' W 073°20'3 6.1
2017-Oct-05 03:30N 40°17' W 073°17'2 1.9
2017-Oct-05 02:39N 40°18' W 073°16'110.0
2017-Oct-05 02:30N 40°17' W 073°17'3 5.4
2017-Oct-05 02:00N 40°16' W 073°20'5 8.5
2017-Oct-05 01:27N 40°19' W 073°15'2 3.8
2017-Oct-05 00:57N 40°20' W 073°17'4 8.4
2017-Oct-05 00:31N 40°20' W 073°22'2 2.9
2017-Oct-04 23:56N 40°22' W 073°23'4 8.7
2017-Oct-04 23:28N 40°20' W 073°28'1 0.5
2017-Oct-04 22:12N 40°20' W 073°28'1 0.2
2017-Oct-04 17:44N 40°20' W 073°28'1 3.7
2017-Oct-04 17:26N 40°21' W 073°27'0 0.4
2017-Oct-04 16:52N 40°22' W 073°27'1 1.6
2017-Oct-04 16:27N 40°21' W 073°28'0 0.9
2017-Oct-04 15:57N 40°21' W 073°28'0 0.4
2017-Oct-04 15:30N 40°21' W 073°29'1 2.2
2017-Oct-04 14:57N 40°22' W 073°27'1 2.3
2017-Oct-04 14:31N 40°21' W 073°28'1 1.6
2017-Oct-04 14:01N 40°22' W 073°29'523.7
2017-Oct-04 13:48N 40°18' W 073°24'516.6 240 / 101030.2 16.9 19.5
2017-Oct-04 13:30N 40°22' W 073°28'1 1.8
2017-Oct-04 12:59N 40°23' W 073°28'630.0
2017-Oct-04 12:48N 40°18' W 073°24'516.7 260 / 101030.4 16.8 19.5
2017-Oct-04 12:30N 40°22' W 073°28'0 0.8
2017-Oct-04 11:59N 40°22' W 073°28'526.5
2017-Oct-04 11:48N 40°18' W 073°24'517.1 250 / 101030.3 17.0 19.5
2017-Oct-04 11:30N 40°21' W 073°29'5 9.3
2017-Oct-04 11:00N 40°20' W 073°23'419.9
2017-Oct-04 10:48N 40°18' W 073°18'2 5.9 260 / 101030.0 16.7 19.2
2017-Oct-04 10:30N 40°19' W 073°17'2 3.7
2017-Oct-04 09:54N 40°17' W 073°18'565.5
2017-Oct-04 09:50N 40°12' W 073°18'510.0 260 / 101030.2 16.7 19.1
2017-Oct-04 09:21N 40°17' W 073°18'3 9.6
2017-Oct-04 09:00N 40°19' W 073°15'2 5.0
2017-Oct-04 08:31N 40°17' W 073°18'1 2.7
2017-Oct-04 08:00N 40°17' W 073°19'2 9.3
2017-Oct-04 07:50N 40°18' W 073°18'3 8.7 240 / 131030.7 17.1 19.2
2017-Oct-04 07:29N 40°20' W 073°15'5 8.8
2017-Oct-04 06:57N 40°16' W 073°19'436.4
2017-Oct-04 06:50N 40°12' W 073°18'516.5 230 / 111031.5 17.0 19.1
2017-Oct-04 06:30N 40°17' W 073°18'2 3.7
2017-Oct-04 05:58N 40°19' W 073°16'323.6
2017-Oct-04 05:50N 40°18' W 073°12'721.2 200 / 91032.3 17.0 19.2
2017-Oct-04 05:30N 40°15' W 073°21'710.7
2017-Oct-04 04:51N 40°18' W 073°12'344.2 200 / 81032.4 16.8 19.3
2017-Oct-04 04:46N 40°20' W 073°15'2 8.7
2017-Oct-04 04:30N 40°18' W 073°17'3 6.1
2017-Oct-04 04:01N 40°16' W 073°20'426.0
2017-Oct-04 03:51N 40°12' W 073°18'818.0 180 / 81033.1 16.7 19.2
2017-Oct-04 03:25N 40°20' W 073°16'4 9.8
2017-Oct-04 03:00N 40°17' W 073°20'532.3
2017-Oct-04 02:51N 40°12' W 073°18'811.7 160 / 9 19.2
2017-Oct-04 02:09N 40°20' W 073°16'3 8.1
2017-Oct-04 01:51N 40°18' W 073°18'5 4.6 190 / 81033.6 16.3 19.2
2017-Oct-04 00:51N 40°18' W 073°12'712.8 150 / 81033.9 16.3 19.4
2017-Oct-04 00:18N 40°16' W 073°21'3 2.0
2017-Oct-03 22:51N 40°18' W 073°18'5 4.6 110 / 71033.8 16.1 19.2
2017-Oct-03 21:51N 40°18' W 073°12'5 4.6 100 / 71033.9 16.4 19.5
2017-Oct-03 20:51N 40°18' W 073°18'6 6.0 110 / 121033.7 16.7 19.3
2017-Oct-03 19:51N 40°12' W 073°18'0 0.0 100 / 111034.3 16.9 19.4
2017-Oct-03 18:51N 40°12' W 073°18'8 1.0 070 / 101035.0 16.6 19.4
2017-Oct-03 10:55N 40°20' W 073°18'3 7.8
2017-Oct-03 10:29N 40°18' W 073°21'2 1.6
2017-Oct-03 09:27N 40°19' W 073°20'4 8.3
2017-Oct-03 08:59N 40°16' W 073°24'510.2
2017-Oct-03 08:29N 40°20' W 073°19'3 6.0
2017-Oct-03 08:00N 40°18' W 073°21'0 0.5
2017-Oct-03 07:30N 40°18' W 073°22'2 1.8
2017-Oct-03 06:31N 40°17' W 073°23'0 1.3
2017-Oct-03 06:20N 40°17' W 073°23'510.2
2017-Oct-03 05:50N 40°20' W 073°19'3 2.1
2017-Oct-03 04:22N 40°18' W 073°21'2 1.1
2017-Oct-03 02:58N 40°17' W 073°23'4 0.3
2017-Oct-02 14:44N 40°19' W 073°28'2 4.5
2017-Oct-02 14:19N 40°20' W 073°26'2 3.2
2017-Oct-02 13:48N 40°19' W 073°28'1 2.3
2017-Oct-02 13:25N 40°20' W 073°27'1 1.2
2017-Oct-02 13:00N 40°20' W 073°26'1 2.0
2017-Oct-02 12:18N 40°21' W 073°25'3 6.9
2017-Oct-02 11:56N 40°19' W 073°27'2 2.8
2017-Oct-02 11:13N 40°20' W 073°25'3 8.4
2017-Oct-02 10:50N 40°18' W 073°28'2 0.9
2017-Oct-02 09:06N 40°19' W 073°27'1 9.1
2017-Oct-02 09:00N 40°18' W 073°27'3 5.3
2017-Oct-02 08:24N 40°21' W 073°24'3 8.0
2017-Oct-02 07:59N 40°18' W 073°28'4 8.1
2017-Oct-02 07:30N 40°21' W 073°24'3 5.9
2017-Oct-02 06:59N 40°19' W 073°27'2 4.1
2017-Oct-02 06:24N 40°20' W 073°25'2 3.0
2017-Oct-02 05:52N 40°19' W 073°26'  
Track history (hours):
 
Tides and Currents Weather Stations Pressure Air Temp Water Temp Dewpoint Dewpoint Depression Visibility Wind Speed Wind Dir Waves Ship Positions

Oceanographic research ship Nancy Foster (USA)

Detailed information on ship capabilities available from University of Delaware's Ocean Information Center.

Last reported at 2017-Oct-10 06:56 UTC. Time now 2017-Oct-18 15:00 UTC.
Position N 38°15' W 074°30'.
Warning: this ship's position is 8 days out of date.

Type: Other ship. MMSI: 369912000.

Date/timePositionNaut miles runAvg speedWind from/ knotsBaromVisibWave heightAir tempDewpointWater temp
2017-Oct-10 06:56N 38°15' W 074°30'4 8.0
2017-Oct-10 06:25N 38°19' W 074°29'4 8.0
2017-Oct-10 05:58N 38°22' W 074°28'72 6.5
2017-Oct-09 18:59N 39°31' W 073°60'3 6.7
2017-Oct-09 18:30N 39°34' W 073°59'5 7.1
2017-Oct-09 17:52N 39°38' W 073°57'3 7.7
2017-Oct-09 17:30N 39°41' W 073°56'4 8.0
2017-Oct-09 17:00N 39°45' W 073°57'4 8.1
2017-Oct-09 16:30N 39°49' W 073°57'4 8.3
2017-Oct-09 16:00N 39°53' W 073°57'5 8.6
2017-Oct-09 15:27N 39°58' W 073°58'14 5.3
2017-Oct-09 12:53N 40°12' W 073°58'10 7.5
2017-Oct-09 11:28N 40°12' W 073°44'4 9.2
2017-Oct-09 11:00N 40°12' W 073°39'5 9.2
2017-Oct-09 10:28N 40°13' W 073°32'4 9.1
2017-Oct-09 10:00N 40°15' W 073°27'5 9.2
2017-Oct-09 09:30N 40°15' W 073°21'2 3.5
2017-Oct-09 08:59N 40°15' W 073°19'5 8.9
2017-Oct-09 08:26N 40°19' W 073°14'2 3.7
2017-Oct-09 08:00N 40°17' W 073°14'5 9.2
2017-Oct-09 07:29N 40°14' W 073°19'5 7.8
2017-Oct-09 06:54N 40°17' W 073°14'2 4.4
2017-Oct-09 06:19N 40°19' W 073°12'3 9.3
2017-Oct-09 06:00N 40°17' W 073°15'4 6.9
2017-Oct-09 05:28N 40°14' W 073°17'7 5.1
2017-Oct-09 04:05N 40°17' W 073°09'1 2.5
2017-Oct-09 03:42N 40°16' W 073°10'0 1.3
2017-Oct-09 03:26N 40°16' W 073°10'2 0.7
2017-Oct-09 01:16N 40°17' W 073°08'4 8.2
2017-Oct-09 00:49N 40°15' W 073°12'4 0.6
2017-Oct-08 18:23N 40°18' W 073°08'2 3.9
2017-Oct-08 17:57N 40°16' W 073°09'1 0.2
2017-Oct-08 11:10N 40°15' W 073°10'2 9.7
2017-Oct-08 10:58N 40°14' W 073°12'1 2.0
2017-Oct-08 10:18N 40°13' W 073°11'5 4.3
2017-Oct-08 09:14N 40°16' W 073°07'3 9.6
2017-Oct-08 08:58N 40°14' W 073°09'2 1.5
2017-Oct-08 07:52N 40°15' W 073°07'0 0.7
2017-Oct-08 07:08N 40°16' W 073°07'210.0
2017-Oct-08 06:55N 40°14' W 073°09'3 6.1
2017-Oct-08 06:21N 40°12' W 073°13'5 9.2
2017-Oct-08 05:49N 40°16' W 073°08'4 8.8
2017-Oct-08 05:24N 40°18' W 073°04'410.1
2017-Oct-08 05:01N 40°15' W 073°08'510.3
2017-Oct-08 04:30N 40°12' W 073°13'4 6.9
2017-Oct-08 03:55N 40°15' W 073°10'5 8.7
2017-Oct-08 03:20N 40°18' W 073°05'310.3
2017-Oct-08 03:00N 40°16' W 073°08'510.4
2017-Oct-08 02:31N 40°12' W 073°13'3 4.9
2017-Oct-08 01:59N 40°14' W 073°10'6 9.3
2017-Oct-08 01:23N 40°18' W 073°05'3 7.4
2017-Oct-08 01:00N 40°16' W 073°08'510.3
2017-Oct-08 00:30N 40°12' W 073°12'1 1.8
2017-Oct-08 00:00N 40°13' W 073°12'4 6.8
2017-Oct-07 23:25N 40°16' W 073°08'2 4.9
2017-Oct-07 22:58N 40°18' W 073°07'510.1
2017-Oct-07 22:30N 40°15' W 073°11'4 0.7
2017-Oct-07 17:09N 40°17' W 073°07'210.1
2017-Oct-07 16:58N 40°16' W 073°09'510.2
2017-Oct-07 16:30N 40°12' W 073°14'4 7.9
2017-Oct-07 16:01N 40°15' W 073°10'4 4.8
2017-Oct-07 15:16N 40°18' W 073°08'310.3
2017-Oct-07 14:57N 40°16' W 073°12'4 9.7
2017-Oct-07 14:30N 40°13' W 073°16'5 9.5
2017-Oct-07 14:00N 40°17' W 073°11'2 4.4
2017-Oct-07 13:30N 40°18' W 073°09'1 1.4
2017-Oct-07 13:00N 40°18' W 073°10'5 9.8
2017-Oct-07 12:30N 40°15' W 073°15'0 0.6
2017-Oct-07 12:00N 40°15' W 073°15'5 9.5
2017-Oct-07 11:30N 40°18' W 073°10'3 5.4
2017-Oct-07 11:00N 40°17' W 073°13'4 6.6
2017-Oct-07 10:25N 40°13' W 073°15'6 9.5
2017-Oct-07 09:48N 40°17' W 073°10'2 7.0
2017-Oct-07 09:29N 40°19' W 073°08'5 9.5
2017-Oct-07 09:00N 40°15' W 073°12'3 6.4
2017-Oct-07 08:30N 40°13' W 073°15'5 9.6
2017-Oct-07 08:00N 40°16' W 073°10'2 4.8
2017-Oct-07 07:30N 40°18' W 073°08'5 9.6
2017-Oct-07 07:00N 40°15' W 073°12'2 4.0
2017-Oct-07 06:29N 40°13' W 073°14'5 9.4
2017-Oct-07 06:00N 40°16' W 073°10'3 5.2
2017-Oct-07 05:30N 40°18' W 073°08'5 9.9
2017-Oct-07 05:00N 40°15' W 073°12'2 3.7
2017-Oct-07 04:29N 40°14' W 073°14'5 9.3
2017-Oct-07 03:56N 40°17' W 073°10'1 3.4
2017-Oct-07 03:30N 40°18' W 073°08'510.0
2017-Oct-07 03:00N 40°15' W 073°13'0 0.1
2017-Oct-07 02:29N 40°15' W 073°13'5 9.2
2017-Oct-07 02:00N 40°18' W 073°09'0 0.4
2017-Oct-07 01:29N 40°18' W 073°09'5 9.9
2017-Oct-07 00:59N 40°14' W 073°14'1 2.3
2017-Oct-07 00:19N 40°15' W 073°15'2 4.8
2017-Oct-06 23:53N 40°17' W 073°13'3 6.3
2017-Oct-06 23:27N 40°18' W 073°10'510.1
2017-Oct-06 22:58N 40°15' W 073°15'6 5.3
2017-Oct-06 21:50N 40°19' W 073°09'4 9.3
2017-Oct-06 21:23N 40°16' W 073°12'3 2.5
2017-Oct-06 20:17N 40°18' W 073°10'3 8.2
2017-Oct-06 19:59N 40°16' W 073°12'2 2.9
2017-Oct-06 19:18N 40°15' W 073°14'5 7.3
2017-Oct-06 18:36N 40°18' W 073°09'1 9.7
2017-Oct-06 18:29N 40°18' W 073°10'2 0.9
2017-Oct-06 16:20N 40°19' W 073°09'4 9.6
2017-Oct-06 15:54N 40°16' W 073°12'4 9.8
2017-Oct-06 15:31N 40°14' W 073°16'4 7.7
2017-Oct-06 14:58N 40°16' W 073°12'3 5.1
2017-Oct-06 14:26N 40°19' W 073°10'4 9.7
2017-Oct-06 14:00N 40°16' W 073°14'1 2.0
2017-Oct-06 13:23N 40°15' W 073°15'3 8.1
2017-Oct-06 12:59N 40°17' W 073°12'2 3.7
2017-Oct-06 12:30N 40°18' W 073°10'5 9.6
2017-Oct-06 11:59N 40°15' W 073°15'1 1.7
2017-Oct-06 11:30N 40°15' W 073°16'5 8.9
2017-Oct-06 10:58N 40°18' W 073°12'1 1.9
2017-Oct-06 10:30N 40°18' W 073°13'5 9.5
2017-Oct-06 10:00N 40°14' W 073°17'4 8.3
2017-Oct-06 09:30N 40°17' W 073°13'1 2.8
2017-Oct-06 09:00N 40°18' W 073°12'5 9.4
2017-Oct-06 08:30N 40°15' W 073°17'6 5.4
2017-Oct-06 07:27N 40°19' W 073°11'7 1.1
2017-Oct-06 01:10N 40°14' W 073°18'0 2.7
2017-Oct-06 01:00N 40°15' W 073°18'2 0.2
2017-Oct-05 15:20N 40°16' W 073°17'2 5.2
2017-Oct-05 14:55N 40°15' W 073°19'3 8.1
2017-Oct-05 14:30N 40°17' W 073°16'2 4.3
2017-Oct-05 14:00N 40°18' W 073°14'5 9.9
2017-Oct-05 13:30N 40°15' W 073°18'1 2.3
2017-Oct-05 13:00N 40°16' W 073°18'3 6.7
2017-Oct-05 12:30N 40°18' W 073°15'2 3.2
2017-Oct-05 12:00N 40°17' W 073°16'3 6.7
2017-Oct-05 11:30N 40°15' W 073°19'3 6.3
2017-Oct-05 11:00N 40°17' W 073°16'3 5.0
2017-Oct-05 10:29N 40°19' W 073°14'5 9.5
2017-Oct-05 10:00N 40°16' W 073°18'0 0.4
2017-Oct-05 09:30N 40°16' W 073°18'3 6.2
2017-Oct-05 09:00N 40°18' W 073°15'0 0.9
2017-Oct-05 08:30N 40°18' W 073°15'4 9.0
2017-Oct-05 08:00N 40°15' W 073°19'2 3.1
2017-Oct-05 07:30N 40°16' W 073°18'3 6.0
2017-Oct-05 07:00N 40°18' W 073°15'1 1.7
2017-Oct-05 06:30N 40°18' W 073°16'5 9.3
2017-Oct-05 06:00N 40°15' W 073°20'3 6.0
2017-Oct-05 05:30N 40°17' W 073°18'4 6.0
2017-Oct-05 04:53N 40°20' W 073°14'3 7.6
2017-Oct-05 04:30N 40°18' W 073°17'4 7.1
2017-Oct-05 04:00N 40°15' W 073°20'3 6.1
2017-Oct-05 03:30N 40°17' W 073°17'2 1.9
2017-Oct-05 02:39N 40°18' W 073°16'110.0
2017-Oct-05 02:30N 40°17' W 073°17'3 5.4
2017-Oct-05 02:00N 40°16' W 073°20'5 8.5
2017-Oct-05 01:27N 40°19' W 073°15'2 3.8
2017-Oct-05 00:57N 40°20' W 073°17'4 8.4
2017-Oct-05 00:31N 40°20' W 073°22'2 2.9
2017-Oct-04 23:56N 40°22' W 073°23'4 8.7
2017-Oct-04 23:28N 40°20' W 073°28'1 0.5
2017-Oct-04 22:12N 40°20' W 073°28'1 0.2
2017-Oct-04 17:44N 40°20' W 073°28'1 3.7
2017-Oct-04 17:26N 40°21' W 073°27'0 0.4
2017-Oct-04 16:52N 40°22' W 073°27'1 1.6
2017-Oct-04 16:27N 40°21' W 073°28'0 0.9
2017-Oct-04 15:57N 40°21' W 073°28'0 0.4
2017-Oct-04 15:30N 40°21' W 073°29'1 2.2
2017-Oct-04 14:57N 40°22' W 073°27'1 2.3
2017-Oct-04 14:31N 40°21' W 073°28'1 1.6
2017-Oct-04 14:01N 40°22' W 073°29'523.7
2017-Oct-04 13:48N 40°18' W 073°24'516.6 240 / 101030.2 16.9 19.5
2017-Oct-04 13:30N 40°22' W 073°28'1 1.8
2017-Oct-04 12:59N 40°23' W 073°28'630.0
2017-Oct-04 12:48N 40°18' W 073°24'516.7 260 / 101030.4 16.8 19.5
2017-Oct-04 12:30N 40°22' W 073°28'0 0.8
2017-Oct-04 11:59N 40°22' W 073°28'526.5
2017-Oct-04 11:48N 40°18' W 073°24'517.1 250 / 101030.3 17.0 19.5
2017-Oct-04 11:30N 40°21' W 073°29'5 9.3
2017-Oct-04 11:00N 40°20' W 073°23'419.9
2017-Oct-04 10:48N 40°18' W 073°18'2 5.9 260 / 101030.0 16.7 19.2
2017-Oct-04 10:30N 40°19' W 073°17'2 3.7
2017-Oct-04 09:54N 40°17' W 073°18'565.5
2017-Oct-04 09:50N 40°12' W 073°18'510.0 260 / 101030.2 16.7 19.1
2017-Oct-04 09:21N 40°17' W 073°18'3 9.6
2017-Oct-04 09:00N 40°19' W 073°15'2 5.0
2017-Oct-04 08:31N 40°17' W 073°18'1 2.7
2017-Oct-04 08:00N 40°17' W 073°19'2 9.3
2017-Oct-04 07:50N 40°18' W 073°18'3 8.7 240 / 131030.7 17.1 19.2
2017-Oct-04 07:29N 40°20' W 073°15'5 8.8
2017-Oct-04 06:57N 40°16' W 073°19'436.4
2017-Oct-04 06:50N 40°12' W 073°18'516.5 230 / 111031.5 17.0 19.1
2017-Oct-04 06:30N 40°17' W 073°18'2 3.7
2017-Oct-04 05:58N 40°19' W 073°16'323.6
2017-Oct-04 05:50N 40°18' W 073°12'721.2 200 / 91032.3 17.0 19.2
2017-Oct-04 05:30N 40°15' W 073°21'710.7
2017-Oct-04 04:51N 40°18' W 073°12'344.2 200 / 81032.4 16.8 19.3
2017-Oct-04 04:46N 40°20' W 073°15'2 8.7
2017-Oct-04 04:30N 40°18' W 073°17'3 6.1
2017-Oct-04 04:01N 40°16' W 073°20'426.0
2017-Oct-04 03:51N 40°12' W 073°18'818.0 180 / 81033.1 16.7 19.2
2017-Oct-04 03:25N 40°20' W 073°16'4 9.8
2017-Oct-04 03:00N 40°17' W 073°20'532.3
2017-Oct-04 02:51N 40°12' W 073°18'811.7 160 / 9 19.2
2017-Oct-04 02:09N 40°20' W 073°16'3 8.1
2017-Oct-04 01:51N 40°18' W 073°18'5 4.6 190 / 81033.6 16.3 19.2
2017-Oct-04 00:51N 40°18' W 073°12'712.8 150 / 81033.9 16.3 19.4
2017-Oct-04 00:18N 40°16' W 073°21'3 2.0
2017-Oct-03 22:51N 40°18' W 073°18'5 4.6 110 / 71033.8 16.1 19.2
2017-Oct-03 21:51N 40°18' W 073°12'5 4.6 100 / 71033.9 16.4 19.5
2017-Oct-03 20:51N 40°18' W 073°18'6 6.0 110 / 121033.7 16.7 19.3
2017-Oct-03 19:51N 40°12' W 073°18'0 0.0 100 / 111034.3 16.9 19.4
2017-Oct-03 18:51N 40°12' W 073°18'8 1.0 070 / 101035.0 16.6 19.4
2017-Oct-03 10:55N 40°20' W 073°18'3 7.8
2017-Oct-03 10:29N 40°18' W 073°21'2 1.6
2017-Oct-03 09:27N 40°19' W 073°20'4 8.3
2017-Oct-03 08:59N 40°16' W 073°24'510.2
2017-Oct-03 08:29N 40°20' W 073°19'3 6.0
2017-Oct-03 08:00N 40°18' W 073°21'0 0.5
2017-Oct-03 07:30N 40°18' W 073°22'2 1.8
2017-Oct-03 06:31N 40°17' W 073°23'0 1.3
2017-Oct-03 06:20N 40°17' W 073°23'510.2
2017-Oct-03 05:50N 40°20' W 073°19'3 2.1
2017-Oct-03 04:22N 40°18' W 073°21'2 1.1
2017-Oct-03 02:58N 40°17' W 073°23'4 0.3
2017-Oct-02 14:44N 40°19' W 073°28'2 4.5
2017-Oct-02 14:19N 40°20' W 073°26'2 3.2
2017-Oct-02 13:48N 40°19' W 073°28'1 2.3
2017-Oct-02 13:25N 40°20' W 073°27'1 1.2
2017-Oct-02 13:00N 40°20' W 073°26'1 2.0
2017-Oct-02 12:18N 40°21' W 073°25'3 6.9
2017-Oct-02 11:56N 40°19' W 073°27'2 2.8
2017-Oct-02 11:13N 40°20' W 073°25'3 8.4
2017-Oct-02 10:50N 40°18' W 073°28'2 0.9
2017-Oct-02 09:06N 40°19' W 073°27'1 9.1
2017-Oct-02 09:00N 40°18' W 073°27'3 5.3
2017-Oct-02 08:24N 40°21' W 073°24'3 8.0
2017-Oct-02 07:59N 40°18' W 073°28'4 8.1
2017-Oct-02 07:30N 40°21' W 073°24'3 5.9
2017-Oct-02 06:59N 40°19' W 073°27'2 4.1
2017-Oct-02 06:24N 40°20' W 073°25'2 3.0
2017-Oct-02 05:52N 40°19' W 073°26'  

Dump ship's entire track history